Indian, Virginia
Current Conditions -  °F | °C
As of 1:35 AM on Wednesday 28 Jan 2015 (Local Time) from KJFZ Reporting Station
Overcast Overcast  
Wind Chill: 10°   Ceiling: 1600
Heat Index: 17°   Visibility: 10mi
Dew Point: 10°   Wind: 5mph
Humidity: 73%   Direction: 300°WNW
Pressure: 30.07"   Gusts: NA
Location:  37.0714°N, 81.7762°W
Report Text: KJFZ 280635Z AUTO 30004KT 10SM OVC016 M08/M12 A3007 RMK AO2 T10811121
Loading
Personal Weather Stations






























Interactive Weather Map New forecast layout! Learn more

10-Day Weather Forecast

Advertisements
Track Severe Weather on mobile